チタ の空港の天気 - METARとTAF

チタ・カダラ空港 ( UIAA / HTA ) - ロシア チタ
飛行場実況気象(Metar)
観測時間12/15 21:30 YAKT (12/15 12:30 UTC)
風向・風速南西 5m/s
視程10km以上
天気現象
なし
気温-11℃
湿度67%
気圧1011hPa
METARUIAA 151230Z 23005MPS 9999 NSC M11/M16 Q1011 R29/390145 NOSIG RMK QFE700/0934
過去の天気等 Google飛行場航空写真 Wunderground天気予報

過去48時間のMETAR

飛行場予報(TAF)
発表時間: 12/15 20:00 YAKT (12/15 11:00 UTC)
予報対象時間: 15日21時 YAKT ~ 16日21時 YAKT
風向・風速南西 5m/s 瞬間風速 10m/s
視程10km以上
全天の4割程度の積乱雲 雲底高度 1220m
16日9時 YAKT ~ 16日21時 YAKT に一時的に
風向・風速西北西 6m/s 瞬間風速 12m/s
TAF UIAA 151100Z 1512/1612 23005G10MPS 9999 SCT040CB
TEMPO 1600/1612 30006G12MPS